createdAt,value
2023-01-15T00:03:57.754Z,23.1
2023-01-15T00:09:00.786Z,23.1
2023-01-15T00:14:19.320Z,23.1
2023-01-15T00:19:37.904Z,23.1
2023-01-15T00:24:56.127Z,23.1
2023-01-15T00:30:14.349Z,23.1
2023-01-15T00:35:33.013Z,23.1
2023-01-15T00:40:51.505Z,23.1
2023-01-15T00:46:10.094Z,23.1
2023-01-15T00:51:28.418Z,23.1
2023-01-15T00:56:47.219Z,23.2
2023-01-15T01:02:06.195Z,23.1
2023-01-15T01:07:24.956Z,23.2
2023-01-15T01:12:43.216Z,23.2
2023-01-15T01:18:02.004Z,23.2
2023-01-15T01:23:20.200Z,23.2
2023-01-15T01:28:38.419Z,23.3
2023-01-15T01:33:56.701Z,23.3
2023-01-15T01:39:15.189Z,23.3
2023-01-15T01:44:33.672Z,23.3
2023-01-15T01:49:52.410Z,23.3
2023-01-15T01:55:11.191Z,23.3
2023-01-15T02:00:30.038Z,23.3
2023-01-15T02:05:48.672Z,23.3
2023-01-15T02:11:07.652Z,23.3
2023-01-15T02:16:25.706Z,23.3
2023-01-15T02:21:44.298Z,23.3
2023-01-15T02:27:02.799Z,23.3
2023-01-15T02:32:21.027Z,23.3
2023-01-15T02:37:39.252Z,23.3
2023-01-15T02:42:57.357Z,23.3
2023-01-15T02:48:15.868Z,23.3
2023-01-15T02:53:34.095Z,23.3
2023-01-15T02:58:52.034Z,23.3
2023-01-15T03:04:11.010Z,23.3
2023-01-15T03:09:28.979Z,23.3
2023-01-15T03:14:46.928Z,23.3
2023-01-15T03:20:05.148Z,23.3
2023-01-15T03:25:23.658Z,23.3
2023-01-15T03:30:42.194Z,23.4
2023-01-15T03:36:01.128Z,23.4
2023-01-15T03:41:19.906Z,23.4
2023-01-15T03:46:38.670Z,23.4
2023-01-15T03:51:57.255Z,23.4
2023-01-15T03:57:15.339Z,23.4
2023-01-15T04:02:33.816Z,23.4
2023-01-15T04:07:51.773Z,23.4
2023-01-15T04:13:10.292Z,23.4
2023-01-15T04:18:28.808Z,23.4
2023-01-15T04:23:47.560Z,23.4
2023-01-15T04:29:05.779Z,23.4
2023-01-15T04:34:24.019Z,23.4
2023-01-15T04:39:42.227Z,23.4
2023-01-15T04:45:00.434Z,23.4
2023-01-15T04:50:18.907Z,23.4
2023-01-15T04:55:37.432Z,23.4
2023-01-15T05:00:55.661Z,23.4
2023-01-15T05:06:13.623Z,23.5
2023-01-15T05:11:32.402Z,23.5
2023-01-15T05:16:50.870Z,23.5
2023-01-15T05:22:09.365Z,23.5
2023-01-15T05:27:27.791Z,23.5
2023-01-15T05:32:46.492Z,23.5
2023-01-15T05:38:04.681Z,23.5
2023-01-15T05:43:22.912Z,23.5
2023-01-15T05:48:41.136Z,23.5
2023-01-15T05:53:59.632Z,23.5
2023-01-15T05:59:18.137Z,23.5
2023-01-15T06:04:36.661Z,23.5
2023-01-15T06:09:55.472Z,23.5
2023-01-15T06:15:14.256Z,23.5
2023-01-15T06:20:32.460Z,23.5
2023-01-15T06:25:51.260Z,23.5
2023-01-15T06:31:10.069Z,23.5
2023-01-15T06:36:28.941Z,23.5
2023-01-15T06:41:47.164Z,23.5
2023-01-15T06:47:05.907Z,23.5
2023-01-15T06:52:24.479Z,23.5
2023-01-15T06:57:42.970Z,23.5
2023-01-15T07:03:04.050Z,23.5
2023-01-15T07:08:22.526Z,23.5
2023-01-15T07:13:40.463Z,23.5
2023-01-15T07:18:59.023Z,23.5
2023-01-15T07:24:17.276Z,23.5
2023-01-15T07:29:36.027Z,23.5
2023-01-15T07:34:54.225Z,23.5
2023-01-15T07:40:12.412Z,23.6
2023-01-15T07:45:31.019Z,23.6
2023-01-15T07:50:49.285Z,23.6
2023-01-15T07:56:13.047Z,23.6
2023-01-15T08:01:32.067Z,23.7
2023-01-15T08:06:51.601Z,23.7
2023-01-15T08:12:09.805Z,23.8
2023-01-15T08:17:28.344Z,23.8
2023-01-15T08:22:47.095Z,23.9
2023-01-15T08:27:50.253Z,23.9
2023-01-15T08:33:09.041Z,23.9
2023-01-15T08:38:27.857Z,23.9
2023-01-15T08:43:46.433Z,23.8
2023-01-15T08:49:06.724Z,23.8
2023-01-15T08:54:25.758Z,23.8
2023-01-15T08:59:44.803Z,23.8
2023-01-15T09:04:47.735Z,23.8
2023-01-15T09:10:05.863Z,23.8
2023-01-15T09:15:24.754Z,23.8
2023-01-15T09:20:42.641Z,23.7
2023-01-15T09:25:53.493Z,23.7
2023-01-15T09:31:11.812Z,23.8
2023-01-15T09:36:30.348Z,23.7
2023-01-15T09:41:49.092Z,23.7
2023-01-15T09:47:07.719Z,23.7
2023-01-15T09:52:26.542Z,23.8
2023-01-15T09:57:45.268Z,23.7
2023-01-15T10:03:03.815Z,23.8
2023-01-15T10:08:22.471Z,23.8
2023-01-15T10:13:46.513Z,23.7
2023-01-15T10:19:05.088Z,23.8
2023-01-15T10:24:23.868Z,23.8
2023-01-15T10:29:42.405Z,23.9
2023-01-15T10:35:01.207Z,23.9
2023-01-15T10:40:20.197Z,23.8
2023-01-15T10:45:38.465Z,23.8
2023-01-15T10:50:56.663Z,23.9
2023-01-15T10:56:14.935Z,23.9
2023-01-15T11:01:33.670Z,24
2023-01-15T11:06:52.310Z,24
2023-01-15T11:12:10.830Z,24.1
2023-01-15T11:17:13.713Z,24.1
2023-01-15T11:22:32.229Z,24.1
2023-01-15T11:27:50.692Z,24.2
2023-01-15T11:33:12.417Z,24.2
2023-01-15T11:38:30.905Z,24.2
2023-01-15T11:43:49.028Z,24.2
2023-01-15T11:49:07.207Z,24.2
2023-01-15T11:54:25.422Z,24.2
2023-01-15T11:59:44.169Z,24.2
2023-01-15T12:05:03.004Z,24.1
2023-01-15T12:10:21.268Z,24.1
2023-01-15T12:15:39.449Z,24.1
2023-01-15T12:20:57.962Z,24
2023-01-15T12:26:16.727Z,23.7
2023-01-15T12:31:35.230Z,23.6
2023-01-15T12:36:53.747Z,23.7
2023-01-15T12:42:12.229Z,23.7
2023-01-15T12:47:30.769Z,23.7
2023-01-15T12:52:48.953Z,23.7
2023-01-15T12:58:07.719Z,23.7
2023-01-15T13:03:26.233Z,23.7
2023-01-15T13:08:44.458Z,23.7
2023-01-15T13:14:02.983Z,23.7
2023-01-15T13:19:21.188Z,23.7
2023-01-15T13:24:39.833Z,23.7
2023-01-15T13:29:58.104Z,23.7
2023-01-15T13:35:16.832Z,23.7
2023-01-15T13:40:35.372Z,23.7
2023-01-15T13:45:53.807Z,23.7
2023-01-15T13:51:12.344Z,23.6
2023-01-15T13:56:31.965Z,23.6
2023-01-15T14:01:50.732Z,23.6
2023-01-15T14:07:09.545Z,23.6
2023-01-15T14:12:27.764Z,23.6
2023-01-15T14:17:45.955Z,23.6
2023-01-15T14:23:04.123Z,23.7
2023-01-15T14:28:22.624Z,23.7
2023-01-15T14:33:41.388Z,23.6
2023-01-15T14:39:00.169Z,23.6
2023-01-15T14:44:18.726Z,23.6
2023-01-15T14:49:37.454Z,23.7
2023-01-15T14:54:55.676Z,23.7
2023-01-15T15:00:14.555Z,23.7
2023-01-15T15:05:33.060Z,23.7
2023-01-15T15:10:51.281Z,23.7
2023-01-15T15:16:09.838Z,23.7
2023-01-15T15:21:29.465Z,23.7
2023-01-15T15:26:50.720Z,23.6
2023-01-15T15:32:08.926Z,23.6
2023-01-15T15:37:27.775Z,23.6
2023-01-15T15:42:45.964Z,23.6
2023-01-15T15:48:04.023Z,23.6
2023-01-15T15:53:23.069Z,23.6
2023-01-15T15:58:41.536Z,23.6
2023-01-15T16:04:00.081Z,23.7
2023-01-15T16:09:18.674Z,23.7
2023-01-15T16:14:37.419Z,23.6
2023-01-15T16:19:56.221Z,23.6
2023-01-15T16:25:14.957Z,23.6
2023-01-15T16:30:33.467Z,23.6
2023-01-15T16:35:51.657Z,23.6
2023-01-15T16:41:10.149Z,23.6
2023-01-15T16:46:28.197Z,23.6
2023-01-15T16:51:46.792Z,23.6
2023-01-15T16:57:05.290Z,23.6
2023-01-15T17:02:23.726Z,23.5
2023-01-15T17:07:42.716Z,23.5
2023-01-15T17:13:00.905Z,23.5
2023-01-15T17:18:19.344Z,23.5
2023-01-15T17:23:38.008Z,23.5
2023-01-15T17:28:56.771Z,23.5
2023-01-15T17:34:15.544Z,23.5
2023-01-15T17:39:34.325Z,23.5
2023-01-15T17:44:53.124Z,23.5
2023-01-15T17:50:11.336Z,23.5
2023-01-15T17:55:29.535Z,23.6
2023-01-15T18:00:48.775Z,23.6
2023-01-15T18:06:07.217Z,23.6
2023-01-15T18:11:25.959Z,23.6
2023-01-15T18:16:44.453Z,23.5
2023-01-15T18:22:02.988Z,23.5
2023-01-15T18:27:21.456Z,23.5
2023-01-15T18:32:39.626Z,23.5
2023-01-15T18:37:57.967Z,23.5
2023-01-15T18:43:16.454Z,23.5
2023-01-15T18:48:34.856Z,23.5
2023-01-15T18:53:53.373Z,23.5
2023-01-15T18:59:11.894Z,23.5
2023-01-15T19:04:30.432Z,23.5
2023-01-15T19:09:48.963Z,23.4
2023-01-15T19:15:07.553Z,23.4
2023-01-15T19:20:26.753Z,23.4
2023-01-15T19:25:45.316Z,23.4
2023-01-15T19:31:04.537Z,23.4
2023-01-15T19:36:22.727Z,23.4
2023-01-15T19:41:41.232Z,23.4
2023-01-15T19:46:59.873Z,23.4
2023-01-15T19:52:18.662Z,23.4
2023-01-15T19:57:37.437Z,23.3
2023-01-15T20:03:01.031Z,23.3
2023-01-15T20:08:19.432Z,23.3
2023-01-15T20:13:38.900Z,23.3
2023-01-15T20:18:58.017Z,23.3
2023-01-15T20:24:16.840Z,23.3
2023-01-15T20:29:35.599Z,23.3
2023-01-15T20:34:53.845Z,23.3
2023-01-15T20:40:12.714Z,23.3
2023-01-15T20:45:31.562Z,23.3
2023-01-15T20:50:50.588Z,23.3
2023-01-15T20:56:09.293Z,23.3
2023-01-15T21:01:27.594Z,23.3
2023-01-15T21:06:46.296Z,23.3
2023-01-15T21:12:04.508Z,23.3
2023-01-15T21:17:22.983Z,23.3
2023-01-15T21:22:41.476Z,23.3
2023-01-15T21:27:59.966Z,23.3
2023-01-15T21:33:18.744Z,23.3
2023-01-15T21:38:36.995Z,23.3
2023-01-15T21:43:55.542Z,23.3
2023-01-15T21:49:14.065Z,23.3
2023-01-15T21:54:32.801Z,23.3
2023-01-15T21:59:51.055Z,23.3
2023-01-15T22:05:09.856Z,23.3
2023-01-15T22:10:28.358Z,23.3
2023-01-15T22:15:46.901Z,23.3
2023-01-15T22:21:05.656Z,23.3
2023-01-15T22:26:23.594Z,23.3
2023-01-15T22:31:42.103Z,23.3
2023-01-15T22:37:00.593Z,23.3
2023-01-15T22:42:19.090Z,23.3
2023-01-15T22:47:37.274Z,23.3
2023-01-15T22:52:55.735Z,23.3
2023-01-15T22:58:13.963Z,23.3
2023-01-15T23:03:32.450Z,23.3
2023-01-15T23:08:50.949Z,23.3
2023-01-15T23:14:09.651Z,23.3
2023-01-15T23:19:28.393Z,23.3
2023-01-15T23:24:46.686Z,23.3
2023-01-15T23:30:05.180Z,23.3
2023-01-15T23:35:23.794Z,23.3
2023-01-15T23:40:42.282Z,23.3
2023-01-15T23:46:00.849Z,23.3
2023-01-15T23:51:19.387Z,23.3
2023-01-15T23:56:37.620Z,23.3
